Time;durP1;ratioP1;P1;durP2;ratioP2;P2;SDS_P1;SDS_P2;PMS_P1;PMS_P2;Temp;Humidity;BMP_temperature;BMP_pressure;BME280_temperature;BME280_humidity;BME280_pressure;Samples;Min_cycle;Max_cycle;Signal;HPM_P1;HPM_P2
2023/03/27 00:00:22;;;;;;;2.63;1.95;;;;;;;;;;12902120;23;20027;-79
2023/03/27 00:05:23;;;;;;;3.80;2.58;;;;;;;;;;12849505;22;20042;-80
2023/03/27 00:10:24;;;;;;;3.08;2.55;;;;;;;;;;12901017;23;20016;-79
2023/03/27 00:15:24;;;;;;;2.78;2.40;;;;;;;;;;12850959;23;20016;-78
2023/03/27 00:20:26;;;;;;;2.90;2.60;;;;;;;;;;12902968;23;20016;-79
2023/03/27 00:25:30;;;;;;;2.97;2.10;;;;;;;;;;12877023;23;20016;-80
2023/03/27 00:30:30;;;;;;;3.00;2.22;;;;;;;;;;12904410;23;20668;-79
2023/03/27 00:35:46;;;;;;;3.17;2.33;;;;;;;;;;12903215;22;20445;-79
2023/03/27 00:40:49;;;;;;;2.35;2.15;;;;;;;;;;12874417;23;20020;-82
2023/03/27 00:45:53;;;;;;;2.85;2.30;;;;;;;;;;12901815;23;20360;-78
2023/03/27 00:50:57;;;;;;;2.53;2.17;;;;;;;;;;12901706;23;20015;-86
2023/03/27 00:56:02;;;;;;;1.70;1.55;;;;;;;;;;12905333;23;20437;-80
2023/03/27 01:01:06;;;;;;;2.17;1.60;;;;;;;;;;12903204;23;20090;-80
2023/03/27 01:06:09;;;;;;;1.15;1.05;;;;;;;;;;12873071;22;20396;-79
2023/03/27 01:11:31;;;;;;;1.57;1.40;;;;;;;;;;12873510;23;20138;-79
2023/03/27 01:16:35;;;;;;;1.10;1.00;;;;;;;;;;12904272;22;20012;-79
2023/03/27 01:21:42;;;;;;;1.40;1.00;;;;;;;;;;12904961;23;20042;-77
2023/03/27 01:26:52;;;;;;;1.13;0.80;;;;;;;;;;12877933;23;20019;-76
2023/03/27 01:32:12;;;;;;;0.90;0.73;;;;;;;;;;12877255;22;20020;-78
2023/03/27 01:37:20;;;;;;;1.52;1.00;;;;;;;;;;12877101;23;20467;-79
2023/03/27 01:42:34;;;;;;;0.80;0.70;;;;;;;;;;12877933;23;20781;-80
2023/03/27 01:47:39;;;;;;;1.58;0.80;;;;;;;;;;12877877;22;20012;-78
2023/03/27 01:52:43;;;;;;;0.93;0.75;;;;;;;;;;12904103;23;20001;-77
2023/03/27 01:57:49;;;;;;;0.82;0.75;;;;;;;;;;12904200;23;20022;-75
2023/03/27 02:03:04;;;;;;;1.02;0.70;;;;;;;;;;12876069;23;20103;-76
2023/03/27 02:08:17;;;;;;;1.17;0.60;;;;;;;;;;12875922;23;20008;-78
2023/03/27 02:13:22;;;;;;;1.23;0.80;;;;;;;;;;12878291;23;20119;-76
2023/03/27 02:18:30;;;;;;;0.40;0.40;;;;;;;;;;12879664;23;20020;-79
2023/03/27 02:23:31;;;;;;;0.40;0.40;;;;;;;;;;12905439;23;20129;-79
2023/03/27 02:28:35;;;;;;;0.68;0.50;;;;;;;;;;12853030;23;20114;-78
2023/03/27 02:33:41;;;;;;;0.90;0.50;;;;;;;;;;12876940;23;20012;-78
2023/03/27 02:38:45;;;;;;;0.50;0.50;;;;;;;;;;12877355;22;20070;-78
2023/03/27 02:44:05;;;;;;;0.70;0.70;;;;;;;;;;12875951;23;20020;-81
2023/03/27 02:49:47;;;;;;;0.80;0.77;;;;;;;;;;12876607;22;20020;-80
2023/03/27 02:55:05;;;;;;;0.73;0.70;;;;;;;;;;12866012;22;20082;-81
2023/03/27 03:00:27;;;;;;;1.05;0.80;;;;;;;;;;12877844;23;20015;-80
2023/03/27 03:05:57;;;;;;;2.13;0.90;;;;;;;;;;12856598;22;20020;-77
2023/03/27 03:11:02;;;;;;;1.30;1.20;;;;;;;;;;12876162;23;20131;-79
2023/03/27 03:16:02;;;;;;;2.20;1.00;;;;;;;;;;12876696;23;20561;-78
2023/03/27 03:21:03;;;;;;;2.05;1.48;;;;;;;;;;12903634;23;20051;-78
2023/03/27 03:26:05;;;;;;;2.95;1.52;;;;;;;;;;12878416;23;20017;-75
2023/03/27 03:31:17;;;;;;;2.83;1.67;;;;;;;;;;12877723;23;20048;-77
2023/03/27 03:36:18;;;;;;;4.45;2.10;;;;;;;;;;12878845;23;20194;-78
2023/03/27 03:41:18;;;;;;;6.18;2.95;;;;;;;;;;12907715;23;20386;-78
2023/03/27 03:46:19;;;;;;;7.20;3.50;;;;;;;;;;12879474;23;20058;-76
2023/03/27 03:51:20;;;;;;;8.25;3.80;;;;;;;;;;12906453;23;20766;-77
2023/03/27 03:56:23;;;;;;;9.63;4.40;;;;;;;;;;12897543;23;20004;-80
2023/03/27 04:01:26;;;;;;;12.80;4.95;;;;;;;;;;12876694;23;20012;-78
2023/03/27 04:06:31;;;;;;;9.52;5.00;;;;;;;;;;12851708;22;20194;-80
2023/03/27 04:11:33;;;;;;;11.68;6.03;;;;;;;;;;12903120;23;20008;-80
2023/03/27 04:17:12;;;;;;;16.85;5.25;;;;;;;;;;12665006;23;20053;-81
2023/03/27 04:22:16;;;;;;;9.98;5.70;;;;;;;;;;12883715;23;20028;-79
2023/03/27 04:27:17;;;;;;;12.23;5.72;;;;;;;;;;12904450;23;20577;-77
2023/03/27 04:32:40;;;;;;;10.80;6.22;;;;;;;;;;12899418;22;20026;-75
2023/03/27 04:38:01;;;;;;;12.50;5.35;;;;;;;;;;12889218;23;20020;-75
2023/03/27 04:43:26;;;;;;;16.17;6.38;;;;;;;;;;12885244;23;20127;-75
2023/03/27 04:48:29;;;;;;;10.70;5.90;;;;;;;;;;12890842;23;20066;-78
2023/03/27 04:53:31;;;;;;;9.40;6.18;;;;;;;;;;12874237;23;20706;-78
2023/03/27 04:58:33;;;;;;;12.93;5.57;;;;;;;;;;12874567;23;20012;-80
2023/03/27 05:03:39;;;;;;;13.68;5.10;;;;;;;;;;12849948;23;20024;-78
2023/03/27 05:08:57;;;;;;;12.45;5.75;;;;;;;;;;12873273;23;20087;-77
2023/03/27 05:14:03;;;;;;;10.70;6.07;;;;;;;;;;12874203;23;20012;-78
2023/03/27 05:19:06;;;;;;;9.43;5.50;;;;;;;;;;12878160;23;20012;-78
2023/03/27 05:24:14;;;;;;;18.58;6.00;;;;;;;;;;12888856;23;20020;-78
2023/03/27 05:29:16;;;;;;;11.82;6.05;;;;;;;;;;12897561;22;20015;-76
2023/03/27 05:34:20;;;;;;;;;;;;;;;;;;12904610;23;20008;-77
2023/03/27 05:39:25;;;;;;;11.30;5.90;;;;;;;;;;12932614;23;19916;-81
2023/03/27 05:44:26;;;;;;;14.10;8.82;;;;;;;;;;12954344;22;20024;-78
2023/03/27 05:49:28;;;;;;;15.60;6.22;;;;;;;;;;12894864;23;20024;-76
2023/03/27 05:54:40;;;;;;;13.40;6.38;;;;;;;;;;12877645;23;20453;-76
2023/03/27 05:59:43;;;;;;;14.32;6.00;;;;;;;;;;12923322;23;20003;-78
2023/03/27 06:04:57;;;;;;;11.93;5.85;;;;;;;;;;12891390;23;20039;-77
2023/03/27 06:10:11;;;;;;;13.10;5.78;;;;;;;;;;12894852;23;20016;-75
2023/03/27 06:15:36;;;;;;;14.55;6.60;;;;;;;;;;12944339;22;20019;-77
2023/03/27 06:20:49;;;;;;;8.30;5.30;;;;;;;;;;12884877;22;20004;-77
2023/03/27 06:25:51;;;;;;;10.48;5.20;;;;;;;;;;12876953;22;20016;-77
2023/03/27 06:30:58;;;;;;;8.45;4.88;;;;;;;;;;12873831;23;20008;-76
2023/03/27 06:36:21;;;;;;;7.05;4.47;;;;;;;;;;12887426;22;20074;-80
2023/03/27 06:41:24;;;;;;;8.70;4.80;;;;;;;;;;12875183;22;20016;-78
2023/03/27 06:46:51;;;;;;;7.00;4.97;;;;;;;;;;12895725;23;20873;-80
2023/03/27 06:52:00;;;;;;;8.52;5.45;;;;;;;;;;12853300;23;20664;-78
2023/03/27 06:57:00;;;;;;;9.38;4.57;;;;;;;;;;12894955;23;20090;-77
2023/03/27 07:02:04;;;;;;;;;;;;;;;;;;12875904;23;20020;-76
2023/03/27 07:07:39;;;;;;;9.93;5.00;;;;;;;;;;12900818;22;20552;-76
2023/03/27 07:12:43;;;;;;;11.27;4.85;;;;;;;;;;12875294;23;20269;-75
2023/03/27 07:17:53;;;;;;;10.02;4.05;;;;;;;;;;12851012;23;20408;-78
2023/03/27 07:22:56;;;;;;;5.15;3.38;;;;;;;;;;12876941;23;20027;-79
2023/03/27 07:28:19;;;;;;;8.00;3.03;;;;;;;;;;12902516;23;20020;-77
2023/03/27 07:33:21;;;;;;;5.77;3.40;;;;;;;;;;12875587;23;20012;-76
2023/03/27 07:38:22;;;;;;;4.45;2.30;;;;;;;;;;12850050;23;20023;-78
2023/03/27 07:43:52;;;;;;;2.30;2.00;;;;;;;;;;12876942;23;20028;-77
2023/03/27 07:48:55;;;;;;;6.38;2.10;;;;;;;;;;12850711;23;20054;-79
2023/03/27 07:54:05;;;;;;;2.83;1.73;;;;;;;;;;12900699;23;20090;-76
2023/03/27 07:59:10;;;;;;;2.80;1.42;;;;;;;;;;12851993;23;20087;-77
2023/03/27 08:04:12;;;;;;;3.67;1.33;;;;;;;;;;12850663;23;20020;-76
2023/03/27 08:09:16;;;;;;;1.55;1.30;;;;;;;;;;12874347;23;20090;-77
2023/03/27 08:14:17;;;;;;;2.42;1.13;;;;;;;;;;12901638;23;20095;-77
2023/03/27 08:19:18;;;;;;;3.42;1.23;;;;;;;;;;12876407;22;20110;-79
2023/03/27 08:24:25;;;;;;;2.20;1.55;;;;;;;;;;12903117;22;20039;-77
2023/03/27 08:29:48;;;;;;;2.03;1.45;;;;;;;;;;12886205;22;20110;-77
2023/03/27 08:34:52;;;;;;;3.20;1.15;;;;;;;;;;12875921;23;20016;-79
2023/03/27 08:39:57;;;;;;;4.00;1.20;;;;;;;;;;12876423;23;20031;-77
2023/03/27 08:45:02;;;;;;;1.40;1.30;;;;;;;;;;12875616;22;20034;-77
2023/03/27 08:50:20;;;;;;;2.63;1.17;;;;;;;;;;12852884;23;20763;-77
2023/03/27 08:55:39;;;;;;;2.63;1.05;;;;;;;;;;12910157;23;20087;-78
2023/03/27 09:00:55;;;;;;;4.85;1.17;;;;;;;;;;12910465;22;20004;-78
2023/03/27 09:06:02;;;;;;;1.50;0.90;;;;;;;;;;12855026;22;20008;-79
2023/03/27 09:11:28;;;;;;;1.42;0.80;;;;;;;;;;12876831;23;20020;-76
2023/03/27 09:16:36;;;;;;;1.35;0.98;;;;;;;;;;12905130;23;20016;-77
2023/03/27 09:21:50;;;;;;;2.28;1.00;;;;;;;;;;12877579;23;20090;-78
2023/03/27 09:27:20;;;;;;;3.95;1.08;;;;;;;;;;12879429;23;20016;-77
2023/03/27 09:32:30;;;;;;;1.77;0.70;;;;;;;;;;12859219;23;20012;-76
2023/03/27 09:37:31;;;;;;;3.83;1.35;;;;;;;;;;12854356;23;20024;-76
2023/03/27 09:42:36;;;;;;;4.13;1.42;;;;;;;;;;12884396;22;20409;-78
2023/03/27 09:47:58;;;;;;;2.92;1.10;;;;;;;;;;12886208;23;20016;-75
2023/03/27 09:53:15;;;;;;;2.40;1.10;;;;;;;;;;12888748;23;20011;-80
2023/03/27 09:58:33;;;;;;;;;;;;;;;;;;12891119;23;20013;-75
2023/03/27 10:03:42;;;;;;;2.42;1.00;;;;;;;;;;12909544;23;19919;-76
2023/03/27 10:08:45;;;;;;;1.85;0.80;;;;;;;;;;12880718;23;20039;-76
2023/03/27 10:13:52;;;;;;;2.53;1.05;;;;;;;;;;12880074;23;20020;-78
2023/03/27 10:18:59;;;;;;;3.17;1.17;;;;;;;;;;12879311;23;20111;-78
2023/03/27 10:24:05;;;;;;;5.05;1.10;;;;;;;;;;12878924;23;20566;-77
2023/03/27 10:29:36;;;;;;;6.65;1.10;;;;;;;;;;12902844;22;20495;-78
2023/03/27 10:34:40;;;;;;;3.42;1.00;;;;;;;;;;12912674;22;20405;-78
2023/03/27 10:40:06;;;;;;;1.92;0.70;;;;;;;;;;12883097;22;20036;-76
2023/03/27 10:45:14;;;;;;;3.45;0.90;;;;;;;;;;12900861;23;20028;-79
2023/03/27 10:50:23;;;;;;;2.10;1.30;;;;;;;;;;12919059;22;20008;-77
2023/03/27 10:55:35;;;;;;;3.72;0.88;;;;;;;;;;12871625;23;20016;-78
2023/03/27 11:00:39;;;;;;;2.75;1.00;;;;;;;;;;12870040;23;20023;-77
2023/03/27 11:05:46;;;;;;;4.65;1.15;;;;;;;;;;12946801;22;20016;-81
2023/03/27 11:11:06;;;;;;;3.08;1.40;;;;;;;;;;12943769;22;20092;-82
2023/03/27 11:16:16;;;;;;;2.85;0.77;;;;;;;;;;12937867;22;20024;-79
2023/03/27 11:21:48;;;;;;;1.98;0.95;;;;;;;;;;12924004;22;20349;-80
2023/03/27 11:27:09;;;;;;;3.70;0.98;;;;;;;;;;12855803;23;20119;-79
2023/03/27 11:32:14;;;;;;;2.83;0.90;;;;;;;;;;12880720;23;20011;-80
2023/03/27 11:37:41;;;;;;;3.05;1.13;;;;;;;;;;12855890;23;20016;-80
2023/03/27 11:42:47;;;;;;;1.17;0.70;;;;;;;;;;12878047;22;20020;-80
2023/03/27 11:48:07;;;;;;;3.35;1.10;;;;;;;;;;12901257;22;20070;-79
2023/03/27 11:53:37;;;;;;;2.92;1.10;;;;;;;;;;12852767;23;20570;-79
2023/03/27 11:58:58;;;;;;;1.45;0.90;;;;;;;;;;12869621;23;20020;-76
2023/03/27 12:04:05;;;;;;;2.28;0.90;;;;;;;;;;12873446;23;20047;-77
2023/03/27 12:09:35;;;;;;;1.33;0.80;;;;;;;;;;12900252;22;20112;-77
2023/03/27 12:15:15;;;;;;;2.53;1.00;;;;;;;;;;12901327;22;20020;-78
2023/03/27 12:20:36;;;;;;;2.50;1.10;;;;;;;;;;12876953;23;20020;-77
2023/03/27 12:25:55;;;;;;;4.28;1.30;;;;;;;;;;12901656;23;20118;-78
2023/03/27 12:31:29;;;;;;;3.00;1.30;;;;;;;;;;12899991;23;20028;-79
2023/03/27 12:36:36;;;;;;;3.35;1.05;;;;;;;;;;12875359;23;20473;-76
2023/03/27 12:41:42;;;;;;;3.97;1.27;;;;;;;;;;12902569;23;20016;-78
2023/03/27 12:47:04;;;;;;;3.42;1.17;;;;;;;;;;12876393;22;20095;-78
2023/03/27 12:52:05;;;;;;;2.08;1.20;;;;;;;;;;12875340;23;20694;-77
2023/03/27 12:57:29;;;;;;;2.65;1.27;;;;;;;;;;12898700;23;20078;-78
2023/03/27 13:02:37;;;;;;;1.88;1.10;;;;;;;;;;12881872;23;20034;-77
2023/03/27 13:07:53;;;;;;;1.05;0.90;;;;;;;;;;12880038;22;20066;-78
2023/03/27 13:13:22;;;;;;;1.80;0.98;;;;;;;;;;12907316;22;20109;-77
2023/03/27 13:18:44;;;;;;;1.60;1.10;;;;;;;;;;12882899;23;20012;-78
2023/03/27 13:23:56;;;;;;;1.92;0.90;;;;;;;;;;12853409;23;20047;-80
2023/03/27 13:29:10;;;;;;;2.20;1.20;;;;;;;;;;12879817;23;20019;-78
2023/03/27 13:34:27;;;;;;;2.13;1.00;;;;;;;;;;12859745;23;20043;-78
2023/03/27 13:39:53;;;;;;;5.88;3.75;;;;;;;;;;12882424;22;20062;-76
2023/03/27 13:45:04;;;;;;;3.97;1.40;;;;;;;;;;12808981;23;20024;-80
2023/03/27 13:50:19;;;;;;;1.58;1.20;;;;;;;;;;12876653;23;20012;-76
2023/03/27 13:55:39;;;;;;;1.73;0.73;;;;;;;;;;12851455;23;20023;-78
2023/03/27 14:01:25;;;;;;;3.60;1.50;;;;;;;;;;12904513;23;20024;-77
2023/03/27 14:06:38;;;;;;;0.70;0.68;;;;;;;;;;12880054;22;20012;-78
2023/03/27 14:11:48;;;;;;;1.60;1.00;;;;;;;;;;12853487;23;20436;-77
2023/03/27 14:17:27;;;;;;;2.35;1.15;;;;;;;;;;12886591;22;20059;-78
2023/03/27 14:22:49;;;;;;;1.65;1.00;;;;;;;;;;12904026;23;20031;-78
2023/03/27 14:27:56;;;;;;;;;;;;;;;;;;12902120;23;20064;-77
2023/03/27 14:33:05;;;;;;;1.15;0.88;;;;;;;;;;12917995;23;19916;-77
2023/03/27 14:38:20;;;;;;;3.03;1.20;;;;;;;;;;12919899;22;20260;-79
2023/03/27 14:43:25;;;;;;;1.65;1.10;;;;;;;;;;12930154;23;20074;-77
2023/03/27 14:48:49;;;;;;;2.15;1.00;;;;;;;;;;12937221;23;20012;-76
2023/03/27 14:53:58;;;;;;;3.65;1.40;;;;;;;;;;12894056;23;20061;-78
2023/03/27 14:59:05;;;;;;;1.90;1.00;;;;;;;;;;12891342;22;20008;-79
2023/03/27 15:04:31;;;;;;;1.98;1.00;;;;;;;;;;12936118;22;20027;-77
2023/03/27 15:09:39;;;;;;;2.40;1.10;;;;;;;;;;12899355;23;20011;-79
2023/03/27 15:15:19;;;;;;;2.63;1.42;;;;;;;;;;12891723;23;20016;-77
2023/03/27 15:20:26;;;;;;;2.03;0.90;;;;;;;;;;12903429;23;20015;-78
2023/03/27 15:25:43;;;;;;;1.50;1.08;;;;;;;;;;12879317;23;20024;-77
2023/03/27 15:30:46;;;;;;;3.23;1.30;;;;;;;;;;12877737;22;20023;-78
2023/03/27 15:35:48;;;;;;;;;;;;;;;;;;12877547;22;20362;-78
2023/03/27 15:40:58;;;;;;;2.53;0.95;;;;;;;;;;12904068;22;20220;-78
2023/03/27 15:46:06;;;;;;;2.20;1.35;;;;;;;;;;12900628;23;20024;-77
2023/03/27 15:51:09;;;;;;;1.50;1.05;;;;;;;;;;12847968;23;20020;-77
2023/03/27 15:56:12;;;;;;;1.88;1.45;;;;;;;;;;12900065;22;20014;-77
2023/03/27 16:01:18;;;;;;;2.55;1.20;;;;;;;;;;12847965;23;20023;-77
2023/03/27 16:06:39;;;;;;;2.00;1.30;;;;;;;;;;12845208;22;20451;-77
2023/03/27 16:11:41;;;;;;;2.03;1.65;;;;;;;;;;12871983;22;20508;-75
2023/03/27 16:16:42;;;;;;;2.03;1.00;;;;;;;;;;12847894;22;20039;-76
2023/03/27 16:21:54;;;;;;;2.58;1.50;;;;;;;;;;12900591;23;20448;-75
2023/03/27 16:26:54;;;;;;;2.75;1.40;;;;;;;;;;12873821;22;20437;-77
2023/03/27 16:31:55;;;;;;;3.72;1.70;;;;;;;;;;12873725;23;20016;-77
2023/03/27 16:36:56;;;;;;;3.70;2.00;;;;;;;;;;12898807;23;20039;-77
2023/03/27 16:41:56;;;;;;;1.88;1.13;;;;;;;;;;12844144;22;20575;-78
2023/03/27 16:46:57;;;;;;;1.73;1.20;;;;;;;;;;12872044;23;20019;-77
2023/03/27 16:51:58;;;;;;;2.75;1.00;;;;;;;;;;12868206;23;20287;-74
2023/03/27 16:57:01;;;;;;;1.38;1.00;;;;;;;;;;12871083;22;20008;-76
2023/03/27 17:02:04;;;;;;;3.05;1.08;;;;;;;;;;12871155;23;20460;-78
2023/03/27 17:07:05;;;;;;;4.10;1.50;;;;;;;;;;12897976;22;20016;-79
2023/03/27 17:12:05;;;;;;;2.70;1.15;;;;;;;;;;12844704;22;20008;-80
2023/03/27 17:17:07;;;;;;;1.65;1.10;;;;;;;;;;12899012;23;20092;-77
2023/03/27 17:22:08;;;;;;;2.47;1.35;;;;;;;;;;12898607;23;20099;-75
2023/03/27 17:27:08;;;;;;;2.13;1.40;;;;;;;;;;12884277;23;20011;-76
2023/03/27 17:32:09;;;;;;;3.03;1.33;;;;;;;;;;12910329;23;20081;-78
2023/03/27 17:37:15;;;;;;;2.95;2.15;;;;;;;;;;12872193;22;20810;-77
2023/03/27 17:42:17;;;;;;;3.90;2.10;;;;;;;;;;12872516;22;20130;-80
2023/03/27 17:47:17;;;;;;;3.58;2.00;;;;;;;;;;12872385;23;20016;-81
2023/03/27 17:52:21;;;;;;;3.42;1.80;;;;;;;;;;12871784;23;20035;-76
2023/03/27 17:57:22;;;;;;;1.80;1.70;;;;;;;;;;12901192;23;20019;-77
2023/03/27 18:02:22;;;;;;;3.07;1.83;;;;;;;;;;12876147;23;20293;-79
2023/03/27 18:07:23;;;;;;;2.45;1.50;;;;;;;;;;12902610;22;20263;-77
2023/03/27 18:12:24;;;;;;;2.92;1.30;;;;;;;;;;12902828;23;20093;-77
2023/03/27 18:17:26;;;;;;;2.55;1.30;;;;;;;;;;12876770;23;20216;-77
2023/03/27 18:22:26;;;;;;;2.92;1.70;;;;;;;;;;12875646;23;20074;-76
2023/03/27 18:27:27;;;;;;;2.10;1.20;;;;;;;;;;12905122;23;20131;-78
2023/03/27 18:32:29;;;;;;;1.13;1.02;;;;;;;;;;12885189;23;20403;-82
2023/03/27 18:37:30;;;;;;;1.13;1.02;;;;;;;;;;12912053;23;20110;-78
2023/03/27 18:42:30;;;;;;;1.42;1.15;;;;;;;;;;12907817;22;20051;-77
2023/03/27 18:47:30;;;;;;;2.25;1.20;;;;;;;;;;12851676;23;20012;-81
2023/03/27 18:52:31;;;;;;;2.08;1.10;;;;;;;;;;12853107;22;20103;-77
2023/03/27 18:57:33;;;;;;;1.77;1.25;;;;;;;;;;12909163;23;20008;-77
2023/03/27 19:02:35;;;;;;;1.95;1.20;;;;;;;;;;12879513;22;20107;-77
2023/03/27 19:07:35;;;;;;;2.72;1.92;;;;;;;;;;12873042;22;20015;-76
2023/03/27 19:12:37;;;;;;;1.83;1.73;;;;;;;;;;12873454;23;20536;-79
2023/03/27 19:18:10;;;;;;;2.88;1.75;;;;;;;;;;12850264;23;20283;-77
2023/03/27 19:23:29;;;;;;;2.80;2.22;;;;;;;;;;12876984;23;20032;-80
2023/03/27 19:28:32;;;;;;;2.13;1.70;;;;;;;;;;12874326;23;20768;-78
2023/03/27 19:33:35;;;;;;;3.47;2.13;;;;;;;;;;12903477;22;20447;-78
2023/03/27 19:38:38;;;;;;;;;;;;;;;;;;12874254;23;20023;-81
2023/03/27 19:43:40;;;;;;;2.63;1.60;;;;;;;;;;12901288;23;20610;-76
2023/03/27 19:48:40;;;;;;;2.43;1.80;;;;;;;;;;12847860;22;20016;-78
2023/03/27 19:53:48;;;;;;;3.08;2.05;;;;;;;;;;12873273;23;20328;-78
2023/03/27 19:58:48;;;;;;;2.85;1.73;;;;;;;;;;12899030;22;20678;-82
2023/03/27 20:03:49;;;;;;;2.60;1.60;;;;;;;;;;12872480;22;20632;-77
2023/03/27 20:08:50;;;;;;;2.93;1.97;;;;;;;;;;12900601;22;20437;-79
2023/03/27 20:13:51;;;;;;;2.08;1.60;;;;;;;;;;12873674;23;20279;-78
2023/03/27 20:19:01;;;;;;;1.80;1.48;;;;;;;;;;12873556;22;20358;-80
2023/03/27 20:24:02;;;;;;;2.03;1.67;;;;;;;;;;12899088;23;20020;-84
2023/03/27 20:29:12;;;;;;;3.88;1.70;;;;;;;;;;12850138;23;20012;-80
2023/03/27 20:34:13;;;;;;;3.10;1.98;;;;;;;;;;12874317;23;20024;-77
2023/03/27 20:39:14;;;;;;;3.00;1.95;;;;;;;;;;12900313;23;20127;-76
2023/03/27 20:44:14;;;;;;;2.58;1.85;;;;;;;;;;12847995;23;20028;-76
2023/03/27 20:49:22;;;;;;;2.42;1.90;;;;;;;;;;12899824;22;20014;-75
2023/03/27 20:54:22;;;;;;;4.30;2.35;;;;;;;;;;12871644;22;20008;-74
2023/03/27 20:59:23;;;;;;;3.57;1.90;;;;;;;;;;12899064;23;20015;-74
2023/03/27 21:04:27;;;;;;;4.10;2.03;;;;;;;;;;12898951;22;20271;-76
2023/03/27 21:09:29;;;;;;;2.65;1.50;;;;;;;;;;12900682;22;20333;-76
2023/03/27 21:14:30;;;;;;;1.33;1.20;;;;;;;;;;12872875;23;20035;-76
2023/03/27 21:19:30;;;;;;;2.67;1.40;;;;;;;;;;12897648;22;20012;-78
2023/03/27 21:24:30;;;;;;;1.92;1.40;;;;;;;;;;12872841;23;20326;-77
2023/03/27 21:29:31;;;;;;;2.25;1.40;;;;;;;;;;12908416;23;20023;-77
2023/03/27 21:34:31;;;;;;;2.50;1.53;;;;;;;;;;12914403;23;20004;-78
2023/03/27 21:39:32;;;;;;;1.70;1.20;;;;;;;;;;12907597;23;20243;-78
2023/03/27 21:44:32;;;;;;;5.33;1.67;;;;;;;;;;12906621;23;20374;-77
2023/03/27 21:49:32;;;;;;;1.70;1.20;;;;;;;;;;12877338;22;20300;-76
2023/03/27 21:54:34;;;;;;;1.30;1.17;;;;;;;;;;12875750;22;20251;-78
2023/03/27 21:59:34;;;;;;;2.40;1.40;;;;;;;;;;12902770;23;20383;-76
2023/03/27 22:04:35;;;;;;;1.40;1.10;;;;;;;;;;12902286;22;20023;-79
2023/03/27 22:09:35;;;;;;;2.60;1.07;;;;;;;;;;12874547;22;20016;-75
2023/03/27 22:14:36;;;;;;;1.73;0.98;;;;;;;;;;12901403;23;20239;-76
2023/03/27 22:19:36;;;;;;;1.75;1.20;;;;;;;;;;12874989;23;20337;-77
2023/03/27 22:24:36;;;;;;;1.77;1.20;;;;;;;;;;12900013;23;20016;-77
2023/03/27 22:29:37;;;;;;;3.35;1.60;;;;;;;;;;12874670;23;20536;-76
2023/03/27 22:34:37;;;;;;;3.00;1.40;;;;;;;;;;12902460;23;20020;-77
2023/03/27 22:39:38;;;;;;;1.40;1.30;;;;;;;;;;12874503;23;20365;-77
2023/03/27 22:44:38;;;;;;;3.03;1.63;;;;;;;;;;12901775;23;20031;-79
2023/03/27 22:49:38;;;;;;;2.93;1.60;;;;;;;;;;12874246;23;20255;-76
2023/03/27 22:54:39;;;;;;;2.73;1.30;;;;;;;;;;12849563;23;20018;-78
2023/03/27 22:59:39;;;;;;;1.75;1.42;;;;;;;;;;12850548;23;20246;-77
2023/03/27 23:04:40;;;;;;;1.70;1.60;;;;;;;;;;12876013;23;20697;-75
2023/03/27 23:09:40;;;;;;;2.13;1.70;;;;;;;;;;12903100;22;20483;-76
2023/03/27 23:14:40;;;;;;;2.17;1.57;;;;;;;;;;12877269;22;20885;-76
2023/03/27 23:19:41;;;;;;;3.37;1.87;;;;;;;;;;12903709;22;20048;-77
2023/03/27 23:24:41;;;;;;;4.50;2.40;;;;;;;;;;12878010;22;20275;-76
2023/03/27 23:29:41;;;;;;;3.20;2.10;;;;;;;;;;12904534;23;20271;-75
2023/03/27 23:34:42;;;;;;;2.42;2.03;;;;;;;;;;12905045;23;20247;-78
2023/03/27 23:39:42;;;;;;;3.42;2.20;;;;;;;;;;12922298;22;20012;-78
2023/03/27 23:44:44;;;;;;;3.90;2.80;;;;;;;;;;12920513;23;20058;-76
2023/03/27 23:49:44;;;;;;;4.45;2.80;;;;;;;;;;12881512;23;20445;-77
2023/03/27 23:54:45;;;;;;;4.95;3.00;;;;;;;;;;12903064;22;20012;-77
2023/03/27 23:59:46;;;;;;;5.00;2.90;;;;;;;;;;12902708;23;20019;-79
